sensor_id;sensor_type;location;lat;lon;timestamp;temperature;humidity
152;DHT22;68;48.792;9.164;2022-07-23T00:00:07;25.30;66.00
152;DHT22;68;48.792;9.164;2022-07-23T00:02:34;25.40;66.40
152;DHT22;68;48.792;9.164;2022-07-23T00:05:02;25.30;66.30
152;DHT22;68;48.792;9.164;2022-07-23T00:07:29;25.40;66.10
152;DHT22;68;48.792;9.164;2022-07-23T00:09:56;25.50;66.10
152;DHT22;68;48.792;9.164;2022-07-23T00:12:24;25.50;66.80
152;DHT22;68;48.792;9.164;2022-07-23T00:14:51;25.50;66.80
152;DHT22;68;48.792;9.164;2022-07-23T00:17:18;25.40;66.90
152;DHT22;68;48.792;9.164;2022-07-23T00:19:45;25.40;66.60
152;DHT22;68;48.792;9.164;2022-07-23T00:22:11;25.30;67.10
152;DHT22;68;48.792;9.164;2022-07-23T00:24:38;25.30;67.50
152;DHT22;68;48.792;9.164;2022-07-23T00:27:05;25.30;67.30
152;DHT22;68;48.792;9.164;2022-07-23T00:29:33;25.30;67.30
152;DHT22;68;48.792;9.164;2022-07-23T00:32:00;25.20;68.00
152;DHT22;68;48.792;9.164;2022-07-23T00:34:27;25.10;68.70
152;DHT22;68;48.792;9.164;2022-07-23T00:36:54;25.10;68.20
152;DHT22;68;48.792;9.164;2022-07-23T00:39:20;25.20;67.60
152;DHT22;68;48.792;9.164;2022-07-23T00:41:48;25.10;67.80
152;DHT22;68;48.792;9.164;2022-07-23T00:44:16;25.10;69.60
152;DHT22;68;48.792;9.164;2022-07-23T00:46:47;24.90;72.60
152;DHT22;68;48.792;9.164;2022-07-23T00:49:14;24.80;73.90
152;DHT22;68;48.792;9.164;2022-07-23T00:51:41;24.70;75.00
152;DHT22;68;48.792;9.164;2022-07-23T00:54:08;24.60;73.90
152;DHT22;68;48.792;9.164;2022-07-23T00:56:35;24.60;73.60
152;DHT22;68;48.792;9.164;2022-07-23T00:59:02;24.50;75.10
152;DHT22;68;48.792;9.164;2022-07-23T01:01:29;24.40;74.70
152;DHT22;68;48.792;9.164;2022-07-23T01:03:57;24.40;73.50
152;DHT22;68;48.792;9.164;2022-07-23T01:06:24;24.30;73.50
152;DHT22;68;48.792;9.164;2022-07-23T01:08:51;24.30;74.00
152;DHT22;68;48.792;9.164;2022-07-23T01:11:19;24.30;73.20
152;DHT22;68;48.792;9.164;2022-07-23T01:13:45;24.40;73.00
152;DHT22;68;48.792;9.164;2022-07-23T01:16:12;24.30;73.70
152;DHT22;68;48.792;9.164;2022-07-23T01:18:39;24.20;73.10
152;DHT22;68;48.792;9.164;2022-07-23T01:21:09;24.10;74.70
152;DHT22;68;48.792;9.164;2022-07-23T01:23:40;24.00;75.40
152;DHT22;68;48.792;9.164;2022-07-23T01:26:06;24.20;73.40
152;DHT22;68;48.792;9.164;2022-07-23T01:28:33;24.30;73.20
152;DHT22;68;48.792;9.164;2022-07-23T01:31:00;24.30;73.60
152;DHT22;68;48.792;9.164;2022-07-23T01:33:27;24.50;72.50
152;DHT22;68;48.792;9.164;2022-07-23T01:35:53;24.40;73.50
152;DHT22;68;48.792;9.164;2022-07-23T01:38:20;24.30;74.20
152;DHT22;68;48.792;9.164;2022-07-23T01:40:48;24.20;74.50
152;DHT22;68;48.792;9.164;2022-07-23T01:43:15;24.30;73.70
152;DHT22;68;48.792;9.164;2022-07-23T01:45:42;24.20;73.80
152;DHT22;68;48.792;9.164;2022-07-23T01:48:09;24.30;73.20
152;DHT22;68;48.792;9.164;2022-07-23T01:50:36;24.40;73.60
152;DHT22;68;48.792;9.164;2022-07-23T01:53:03;24.20;74.10
152;DHT22;68;48.792;9.164;2022-07-23T01:55:30;24.00;73.60
152;DHT22;68;48.792;9.164;2022-07-23T01:57:58;23.70;75.50
152;DHT22;68;48.792;9.164;2022-07-23T02:00:25;23.80;75.40
152;DHT22;68;48.792;9.164;2022-07-23T02:02:51;23.80;75.20
152;DHT22;68;48.792;9.164;2022-07-23T02:05:18;24.00;73.80
152;DHT22;68;48.792;9.164;2022-07-23T02:07:45;24.00;74.10
152;DHT22;68;48.792;9.164;2022-07-23T02:10:12;23.70;75.30
152;DHT22;68;48.792;9.164;2022-07-23T02:12:38;23.70;74.70
152;DHT22;68;48.792;9.164;2022-07-23T02:15:08;23.50;75.40
152;DHT22;68;48.792;9.164;2022-07-23T02:17:34;23.50;75.00
152;DHT22;68;48.792;9.164;2022-07-23T02:20:01;23.30;75.50
152;DHT22;68;48.792;9.164;2022-07-23T02:22:28;23.10;76.90
152;DHT22;68;48.792;9.164;2022-07-23T02:24:55;23.30;76.80
152;DHT22;68;48.792;9.164;2022-07-23T02:27:22;23.40;76.10
152;DHT22;68;48.792;9.164;2022-07-23T02:29:49;23.70;75.90
152;DHT22;68;48.792;9.164;2022-07-23T02:32:17;23.80;75.10
152;DHT22;68;48.792;9.164;2022-07-23T02:34:44;23.50;74.90
152;DHT22;68;48.792;9.164;2022-07-23T02:37:10;23.10;75.90
152;DHT22;68;48.792;9.164;2022-07-23T02:39:37;22.90;76.90
152;DHT22;68;48.792;9.164;2022-07-23T02:42:04;23.10;77.20
152;DHT22;68;48.792;9.164;2022-07-23T02:44:31;23.00;77.20
152;DHT22;68;48.792;9.164;2022-07-23T02:46:57;23.00;77.90
152;DHT22;68;48.792;9.164;2022-07-23T02:49:26;23.10;77.70
152;DHT22;68;48.792;9.164;2022-07-23T02:51:52;23.30;77.20
152;DHT22;68;48.792;9.164;2022-07-23T02:54:19;23.50;76.10
152;DHT22;68;48.792;9.164;2022-07-23T02:56:46;23.70;75.60
152;DHT22;68;48.792;9.164;2022-07-23T02:59:13;23.60;76.40
152;DHT22;68;48.792;9.164;2022-07-23T03:01:40;23.40;76.80
152;DHT22;68;48.792;9.164;2022-07-23T03:04:06;23.40;77.30
152;DHT22;68;48.792;9.164;2022-07-23T03:06:34;23.40;76.70
152;DHT22;68;48.792;9.164;2022-07-23T03:09:02;23.40;76.90
152;DHT22;68;48.792;9.164;2022-07-23T03:11:29;23.60;76.10
152;DHT22;68;48.792;9.164;2022-07-23T03:13:56;23.70;76.10
152;DHT22;68;48.792;9.164;2022-07-23T03:16:23;23.50;76.30
152;DHT22;68;48.792;9.164;2022-07-23T03:18:49;23.50;77.00
152;DHT22;68;48.792;9.164;2022-07-23T03:21:17;23.40;77.30
152;DHT22;68;48.792;9.164;2022-07-23T03:23:45;23.30;77.50
152;DHT22;68;48.792;9.164;2022-07-23T03:26:12;23.10;78.50
152;DHT22;68;48.792;9.164;2022-07-23T03:28:38;22.90;78.40
152;DHT22;68;48.792;9.164;2022-07-23T03:31:05;22.90;78.90
152;DHT22;68;48.792;9.164;2022-07-23T03:33:32;23.00;79.20
152;DHT22;68;48.792;9.164;2022-07-23T03:35:59;23.10;78.30
152;DHT22;68;48.792;9.164;2022-07-23T03:38:26;23.10;77.90
152;DHT22;68;48.792;9.164;2022-07-23T03:40:54;23.00;78.20
152;DHT22;68;48.792;9.164;2022-07-23T03:43:20;23.00;78.40
152;DHT22;68;48.792;9.164;2022-07-23T03:45:49;22.90;78.50
152;DHT22;68;48.792;9.164;2022-07-23T03:48:16;22.70;79.00
152;DHT22;68;48.792;9.164;2022-07-23T03:50:43;22.50;79.60
152;DHT22;68;48.792;9.164;2022-07-23T03:53:10;22.30;80.30
152;DHT22;68;48.792;9.164;2022-07-23T03:55:36;22.10;80.90
152;DHT22;68;48.792;9.164;2022-07-23T03:58:05;22.30;81.00
152;DHT22;68;48.792;9.164;2022-07-23T04:00:31;22.60;80.60
152;DHT22;68;48.792;9.164;2022-07-23T04:02:58;22.60;80.00
152;DHT22;68;48.792;9.164;2022-07-23T04:05:25;22.40;80.50
152;DHT22;68;48.792;9.164;2022-07-23T04:07:52;22.30;80.40
152;DHT22;68;48.792;9.164;2022-07-23T04:10:19;22.30;80.70
152;DHT22;68;48.792;9.164;2022-07-23T04:12:45;22.60;80.40
152;DHT22;68;48.792;9.164;2022-07-23T04:15:13;22.70;80.00
152;DHT22;68;48.792;9.164;2022-07-23T04:17:40;22.70;79.90
152;DHT22;68;48.792;9.164;2022-07-23T04:20:10;22.70;79.30
152;DHT22;68;48.792;9.164;2022-07-23T04:22:37;22.90;79.20
152;DHT22;68;48.792;9.164;2022-07-23T04:25:04;23.00;79.20
152;DHT22;68;48.792;9.164;2022-07-23T04:27:31;23.10;78.40
152;DHT22;68;48.792;9.164;2022-07-23T04:29:59;23.10;78.90
152;DHT22;68;48.792;9.164;2022-07-23T04:32:27;23.30;78.00
152;DHT22;68;48.792;9.164;2022-07-23T04:34:53;23.20;78.90
152;DHT22;68;48.792;9.164;2022-07-23T04:37:20;23.10;78.40
152;DHT22;68;48.792;9.164;2022-07-23T04:39:47;23.20;78.00
152;DHT22;68;48.792;9.164;2022-07-23T04:42:14;23.10;78.50
152;DHT22;68;48.792;9.164;2022-07-23T04:44:40;23.30;77.70
152;DHT22;68;48.792;9.164;2022-07-23T04:47:07;23.30;78.40
152;DHT22;68;48.792;9.164;2022-07-23T04:49:35;23.20;78.00
152;DHT22;68;48.792;9.164;2022-07-23T04:52:02;23.10;78.60
152;DHT22;68;48.792;9.164;2022-07-23T04:54:29;23.10;79.10
152;DHT22;68;48.792;9.164;2022-07-23T04:56:56;23.30;77.80
152;DHT22;68;48.792;9.164;2022-07-23T04:59:23;23.30;77.70
152;DHT22;68;48.792;9.164;2022-07-23T05:01:49;23.50;77.50
152;DHT22;68;48.792;9.164;2022-07-23T05:04:16;23.40;77.60
152;DHT22;68;48.792;9.164;2022-07-23T05:06:44;23.50;77.20
152;DHT22;68;48.792;9.164;2022-07-23T05:09:11;23.50;77.80
152;DHT22;68;48.792;9.164;2022-07-23T05:11:38;23.40;78.10
152;DHT22;68;48.792;9.164;2022-07-23T05:14:05;23.30;78.10
152;DHT22;68;48.792;9.164;2022-07-23T05:16:32;23.30;77.30
152;DHT22;68;48.792;9.164;2022-07-23T05:18:58;23.20;78.50
152;DHT22;68;48.792;9.164;2022-07-23T05:21:25;23.30;77.90
152;DHT22;68;48.792;9.164;2022-07-23T05:23:53;23.40;77.00
152;DHT22;68;48.792;9.164;2022-07-23T05:26:20;23.70;76.70
152;DHT22;68;48.792;9.164;2022-07-23T05:28:47;23.50;77.40
152;DHT22;68;48.792;9.164;2022-07-23T05:31:14;23.40;78.40
152;DHT22;68;48.792;9.164;2022-07-23T05:33:40;23.50;77.70
152;DHT22;68;48.792;9.164;2022-07-23T05:36:08;23.70;77.00
152;DHT22;68;48.792;9.164;2022-07-23T05:38:35;23.70;76.90
152;DHT22;68;48.792;9.164;2022-07-23T05:41:03;23.70;77.00
152;DHT22;68;48.792;9.164;2022-07-23T05:43:30;23.60;77.20
152;DHT22;68;48.792;9.164;2022-07-23T05:45:56;23.50;77.60
152;DHT22;68;48.792;9.164;2022-07-23T05:48:23;23.80;76.50
152;DHT22;68;48.792;9.164;2022-07-23T05:50:50;23.90;77.10
152;DHT22;68;48.792;9.164;2022-07-23T07:16:00;23.60;75.70
152;DHT22;68;48.792;9.164;2022-07-23T07:18:27;23.60;75.60
152;DHT22;68;48.792;9.164;2022-07-23T07:20:54;23.50;75.30
152;DHT22;68;48.792;9.164;2022-07-23T07:23:21;23.50;75.80
152;DHT22;68;48.792;9.164;2022-07-23T07:25:48;23.50;76.10
152;DHT22;68;48.792;9.164;2022-07-23T07:28:14;23.60;76.10
152;DHT22;68;48.792;9.164;2022-07-23T07:30:41;23.70;75.60
152;DHT22;68;48.792;9.164;2022-07-23T07:33:10;23.60;75.70
152;DHT22;68;48.792;9.164;2022-07-23T07:35:37;23.50;77.00
152;DHT22;68;48.792;9.164;2022-07-23T07:38:04;23.30;80.50
152;DHT22;68;48.792;9.164;2022-07-23T07:40:31;23.20;80.40
152;DHT22;68;48.792;9.164;2022-07-23T07:42:58;22.90;80.30
152;DHT22;68;48.792;9.164;2022-07-23T07:45:25;22.50;82.80
152;DHT22;68;48.792;9.164;2022-07-23T07:47:53;22.50;83.20
152;DHT22;68;48.792;9.164;2022-07-23T07:50:21;22.60;83.00
152;DHT22;68;48.792;9.164;2022-07-23T07:52:48;22.60;83.20
152;DHT22;68;48.792;9.164;2022-07-23T07:55:15;22.70;83.30
152;DHT22;68;48.792;9.164;2022-07-23T07:57:42;22.70;82.70
152;DHT22;68;48.792;9.164;2022-07-23T08:00:10;22.90;82.00
152;DHT22;68;48.792;9.164;2022-07-23T08:02:42;23.00;81.40
152;DHT22;68;48.792;9.164;2022-07-23T08:05:09;22.80;81.20
152;DHT22;68;48.792;9.164;2022-07-23T08:07:37;23.00;81.40
152;DHT22;68;48.792;9.164;2022-07-23T08:10:05;23.20;80.40
152;DHT22;68;48.792;9.164;2022-07-23T08:12:40;23.10;81.70
152;DHT22;68;48.792;9.164;2022-07-23T08:15:08;23.20;81.20
152;DHT22;68;48.792;9.164;2022-07-23T08:17:35;23.30;80.60
152;DHT22;68;48.792;9.164;2022-07-23T08:20:02;23.20;80.80
152;DHT22;68;48.792;9.164;2022-07-23T08:22:46;23.20;80.70
152;DHT22;68;48.792;9.164;2022-07-23T08:25:15;22.90;80.30
152;DHT22;68;48.792;9.164;2022-07-23T08:27:42;22.60;82.00
152;DHT22;68;48.792;9.164;2022-07-23T08:30:09;22.90;81.80
152;DHT22;68;48.792;9.164;2022-07-23T08:33:01;23.20;80.70
152;DHT22;68;48.792;9.164;2022-07-23T08:35:29;23.10;80.70
152;DHT22;68;48.792;9.164;2022-07-23T08:37:59;23.00;80.20
152;DHT22;68;48.792;9.164;2022-07-23T08:40:28;23.10;80.30
152;DHT22;68;48.792;9.164;2022-07-23T08:42:55;23.60;79.30
152;DHT22;68;48.792;9.164;2022-07-23T08:45:24;23.60;77.90
152;DHT22;68;48.792;9.164;2022-07-23T08:47:52;23.40;77.00
152;DHT22;68;48.792;9.164;2022-07-23T08:50:19;23.50;78.20
152;DHT22;68;48.792;9.164;2022-07-23T08:52:47;23.60;77.60
152;DHT22;68;48.792;9.164;2022-07-23T08:55:16;23.90;76.00
152;DHT22;68;48.792;9.164;2022-07-23T08:57:43;23.90;75.40
152;DHT22;68;48.792;9.164;2022-07-23T09:00:10;24.00;75.50
152;DHT22;68;48.792;9.164;2022-07-23T09:02:42;24.30;75.60
152;DHT22;68;48.792;9.164;2022-07-23T09:05:10;24.60;74.50
152;DHT22;68;48.792;9.164;2022-07-23T09:07:38;24.90;72.00
152;DHT22;68;48.792;9.164;2022-07-23T09:10:26;25.20;71.40
152;DHT22;68;48.792;9.164;2022-07-23T09:12:52;25.30;70.30
152;DHT22;68;48.792;9.164;2022-07-23T09:15:19;25.30;69.30
152;DHT22;68;48.792;9.164;2022-07-23T09:17:46;25.50;70.20
152;DHT22;68;48.792;9.164;2022-07-23T09:20:16;25.70;69.10
152;DHT22;68;48.792;9.164;2022-07-23T09:22:45;25.90;70.20
152;DHT22;68;48.792;9.164;2022-07-23T09:25:14;26.00;68.30
152;DHT22;68;48.792;9.164;2022-07-23T09:27:52;26.10;69.00
152;DHT22;68;48.792;9.164;2022-07-23T09:30:20;26.20;66.80
152;DHT22;68;48.792;9.164;2022-07-23T09:33:05;26.10;67.00
152;DHT22;68;48.792;9.164;2022-07-23T09:35:46;25.90;67.90
152;DHT22;68;48.792;9.164;2022-07-23T09:38:14;25.20;69.00
152;DHT22;68;48.792;9.164;2022-07-23T09:40:41;25.20;70.50
152;DHT22;68;48.792;9.164;2022-07-23T09:43:09;25.40;69.50
152;DHT22;68;48.792;9.164;2022-07-23T09:45:36;25.50;68.60
152;DHT22;68;48.792;9.164;2022-07-23T09:48:12;25.40;68.80
152;DHT22;68;48.792;9.164;2022-07-23T09:50:39;25.30;69.30
152;DHT22;68;48.792;9.164;2022-07-23T09:53:07;25.50;68.80
152;DHT22;68;48.792;9.164;2022-07-23T09:55:35;25.50;69.20
152;DHT22;68;48.792;9.164;2022-07-23T09:58:03;25.50;69.50
152;DHT22;68;48.792;9.164;2022-07-23T10:00:32;25.60;69.30
152;DHT22;68;48.792;9.164;2022-07-23T10:02:59;25.70;68.50
152;DHT22;68;48.792;9.164;2022-07-23T10:05:29;25.60;68.80
152;DHT22;68;48.792;9.164;2022-07-23T10:07:58;25.80;68.40
152;DHT22;68;48.792;9.164;2022-07-23T10:10:27;25.90;65.30
152;DHT22;68;48.792;9.164;2022-07-23T10:12:55;26.10;65.50
152;DHT22;68;48.792;9.164;2022-07-23T10:15:41;26.30;66.30
152;DHT22;68;48.792;9.164;2022-07-23T10:18:10;26.50;67.60
152;DHT22;68;48.792;9.164;2022-07-23T10:20:37;26.60;66.40
152;DHT22;68;48.792;9.164;2022-07-23T10:23:10;26.80;64.30
152;DHT22;68;48.792;9.164;2022-07-23T10:25:44;27.00;64.90
152;DHT22;68;48.792;9.164;2022-07-23T10:28:30;27.00;64.70
152;DHT22;68;48.792;9.164;2022-07-23T10:31:07;27.10;62.80
152;DHT22;68;48.792;9.164;2022-07-23T10:33:49;26.90;62.70
152;DHT22;68;48.792;9.164;2022-07-23T10:36:26;26.70;63.50
152;DHT22;68;48.792;9.164;2022-07-23T10:38:58;26.80;63.00
152;DHT22;68;48.792;9.164;2022-07-23T10:41:33;26.80;61.20
152;DHT22;68;48.792;9.164;2022-07-23T10:44:06;26.90;61.20
152;DHT22;68;48.792;9.164;2022-07-23T10:46:35;27.00;62.90
152;DHT22;68;48.792;9.164;2022-07-23T10:49:26;27.00;59.70
152;DHT22;68;48.792;9.164;2022-07-23T10:52:15;27.10;60.90
152;DHT22;68;48.792;9.164;2022-07-23T10:54:43;27.50;61.00
152;DHT22;68;48.792;9.164;2022-07-23T10:57:11;27.30;61.90
152;DHT22;68;48.792;9.164;2022-07-23T11:00:16;27.30;62.20
152;DHT22;68;48.792;9.164;2022-07-23T11:02:46;27.20;61.80
152;DHT22;68;48.792;9.164;2022-07-23T11:05:14;27.10;62.90
152;DHT22;68;48.792;9.164;2022-07-23T11:08:10;27.10;62.70
152;DHT22;68;48.792;9.164;2022-07-23T11:10:41;27.40;63.60
152;DHT22;68;48.792;9.164;2022-07-23T11:13:31;27.70;62.70
152;DHT22;68;48.792;9.164;2022-07-23T11:16:20;27.60;62.50
152;DHT22;68;48.792;9.164;2022-07-23T11:19:06;27.70;63.00
152;DHT22;68;48.792;9.164;2022-07-23T11:24:25;27.30;63.70
152;DHT22;68;48.792;9.164;2022-07-23T11:27:02;27.70;63.70
152;DHT22;68;48.792;9.164;2022-07-23T11:29:42;27.50;62.00
152;DHT22;68;48.792;9.164;2022-07-23T11:32:28;27.20;63.70
152;DHT22;68;48.792;9.164;2022-07-23T11:34:57;27.20;64.80
152;DHT22;68;48.792;9.164;2022-07-23T11:37:34;27.20;65.00
152;DHT22;68;48.792;9.164;2022-07-23T11:40:04;27.30;64.20
152;DHT22;68;48.792;9.164;2022-07-23T11:42:32;27.50;65.30
152;DHT22;68;48.792;9.164;2022-07-23T11:44:58;27.70;64.80
152;DHT22;68;48.792;9.164;2022-07-23T11:47:26;27.60;64.70
152;DHT22;68;48.792;9.164;2022-07-23T11:49:54;27.70;64.40
152;DHT22;68;48.792;9.164;2022-07-23T11:52:24;27.50;63.20
152;DHT22;68;48.792;9.164;2022-07-23T11:54:53;27.50;65.70
152;DHT22;68;48.792;9.164;2022-07-23T11:57:23;27.80;64.00
152;DHT22;68;48.792;9.164;2022-07-23T11:59:53;27.90;62.50
152;DHT22;68;48.792;9.164;2022-07-23T12:02:21;28.00;63.60
152;DHT22;68;48.792;9.164;2022-07-23T12:04:50;27.70;63.20
152;DHT22;68;48.792;9.164;2022-07-23T12:07:31;27.80;63.30
152;DHT22;68;48.792;9.164;2022-07-23T12:09:59;28.00;63.10
152;DHT22;68;48.792;9.164;2022-07-23T12:12:26;28.10;63.40
152;DHT22;68;48.792;9.164;2022-07-23T12:14:55;28.20;61.80
152;DHT22;68;48.792;9.164;2022-07-23T12:17:29;28.40;63.60
152;DHT22;68;48.792;9.164;2022-07-23T12:19:59;28.30;62.50
152;DHT22;68;48.792;9.164;2022-07-23T12:22:34;28.40;64.30
152;DHT22;68;48.792;9.164;2022-07-23T12:25:03;28.70;62.20
152;DHT22;68;48.792;9.164;2022-07-23T12:27:31;28.70;60.70
152;DHT22;68;48.792;9.164;2022-07-23T12:29:58;28.80;61.70
152;DHT22;68;48.792;9.164;2022-07-23T12:32:26;28.90;62.10
152;DHT22;68;48.792;9.164;2022-07-23T12:35:04;29.10;61.90
152;DHT22;68;48.792;9.164;2022-07-23T12:37:34;28.80;60.30
152;DHT22;68;48.792;9.164;2022-07-23T12:40:25;28.60;60.20
152;DHT22;68;48.792;9.164;2022-07-23T12:42:54;28.50;61.80
152;DHT22;68;48.792;9.164;2022-07-23T12:45:21;28.50;61.50
152;DHT22;68;48.792;9.164;2022-07-23T12:47:59;28.60;61.90
152;DHT22;68;48.792;9.164;2022-07-23T12:50:44;28.60;60.60
152;DHT22;68;48.792;9.164;2022-07-23T12:53:16;28.50;61.90
152;DHT22;68;48.792;9.164;2022-07-23T12:55:44;28.50;62.30
152;DHT22;68;48.792;9.164;2022-07-23T12:58:14;28.60;62.70
152;DHT22;68;48.792;9.164;2022-07-23T13:01:02;28.80;63.30
152;DHT22;68;48.792;9.164;2022-07-23T13:03:32;28.50;61.50
152;DHT22;68;48.792;9.164;2022-07-23T13:06:00;28.20;64.00
152;DHT22;68;48.792;9.164;2022-07-23T13:08:29;28.40;62.20
152;DHT22;68;48.792;9.164;2022-07-23T13:10:58;28.30;63.70
152;DHT22;68;48.792;9.164;2022-07-23T13:13:27;28.10;61.30
152;DHT22;68;48.792;9.164;2022-07-23T13:15:54;28.00;62.70
152;DHT22;68;48.792;9.164;2022-07-23T13:18:21;28.00;64.20
152;DHT22;68;48.792;9.164;2022-07-23T13:20:48;28.10;64.30
152;DHT22;68;48.792;9.164;2022-07-23T13:23:16;28.20;61.30
152;DHT22;68;48.792;9.164;2022-07-23T13:25:45;28.50;64.10
152;DHT22;68;48.792;9.164;2022-07-23T13:28:13;28.80;62.20
152;DHT22;68;48.792;9.164;2022-07-23T13:30:40;28.80;60.60
152;DHT22;68;48.792;9.164;2022-07-23T13:33:08;28.90;58.80
152;DHT22;68;48.792;9.164;2022-07-23T13:35:36;28.80;59.50
152;DHT22;68;48.792;9.164;2022-07-23T13:38:03;28.80;59.50
152;DHT22;68;48.792;9.164;2022-07-23T13:40:30;28.90;60.00
152;DHT22;68;48.792;9.164;2022-07-23T13:42:58;28.90;60.60
152;DHT22;68;48.792;9.164;2022-07-23T13:45:25;28.90;60.90
152;DHT22;68;48.792;9.164;2022-07-23T13:47:52;29.00;61.20
152;DHT22;68;48.792;9.164;2022-07-23T13:50:19;29.10;60.60
152;DHT22;68;48.792;9.164;2022-07-23T13:52:46;28.90;59.60
152;DHT22;68;48.792;9.164;2022-07-23T13:55:12;28.90;59.00
152;DHT22;68;48.792;9.164;2022-07-23T13:57:39;28.70;58.30
152;DHT22;68;48.792;9.164;2022-07-23T14:00:09;28.50;59.90
152;DHT22;68;48.792;9.164;2022-07-23T14:02:38;28.60;60.50
152;DHT22;68;48.792;9.164;2022-07-23T14:05:06;28.80;61.30
152;DHT22;68;48.792;9.164;2022-07-23T14:07:34;28.60;60.20
152;DHT22;68;48.792;9.164;2022-07-23T14:10:02;28.60;63.30
152;DHT22;68;48.792;9.164;2022-07-23T14:12:29;28.50;61.00
152;DHT22;68;48.792;9.164;2022-07-23T14:14:56;28.70;61.90
152;DHT22;68;48.792;9.164;2022-07-23T14:17:24;29.00;60.90
152;DHT22;68;48.792;9.164;2022-07-23T14:19:51;29.20;60.00
152;DHT22;68;48.792;9.164;2022-07-23T14:22:17;29.30;59.00
152;DHT22;68;48.792;9.164;2022-07-23T14:24:44;29.20;58.70
152;DHT22;68;48.792;9.164;2022-07-23T14:27:11;29.20;57.20
152;DHT22;68;48.792;9.164;2022-07-23T14:29:38;29.10;57.50
152;DHT22;68;48.792;9.164;2022-07-23T14:32:05;29.20;57.80
152;DHT22;68;48.792;9.164;2022-07-23T14:34:33;29.20;56.80
152;DHT22;68;48.792;9.164;2022-07-23T14:37:01;29.20;59.30
152;DHT22;68;48.792;9.164;2022-07-23T14:39:27;29.10;57.50
152;DHT22;68;48.792;9.164;2022-07-23T14:41:54;29.00;57.20
152;DHT22;68;48.792;9.164;2022-07-23T14:44:21;28.90;57.10
152;DHT22;68;48.792;9.164;2022-07-23T14:46:48;28.90;57.40
152;DHT22;68;48.792;9.164;2022-07-23T14:49:15;29.00;57.00
152;DHT22;68;48.792;9.164;2022-07-23T14:51:43;29.20;57.20
152;DHT22;68;48.792;9.164;2022-07-23T14:54:10;29.30;56.30
152;DHT22;68;48.792;9.164;2022-07-23T14:56:37;29.30;57.50
152;DHT22;68;48.792;9.164;2022-07-23T14:59:04;29.30;53.90
152;DHT22;68;48.792;9.164;2022-07-23T15:01:32;29.10;55.30
152;DHT22;68;48.792;9.164;2022-07-23T15:03:58;29.20;56.10
152;DHT22;68;48.792;9.164;2022-07-23T15:06:25;29.30;56.20
152;DHT22;68;48.792;9.164;2022-07-23T15:08:54;29.40;56.90
152;DHT22;68;48.792;9.164;2022-07-23T15:11:20;29.40;55.50
152;DHT22;68;48.792;9.164;2022-07-23T15:13:47;29.30;55.70
152;DHT22;68;48.792;9.164;2022-07-23T15:16:14;29.30;54.90
152;DHT22;68;48.792;9.164;2022-07-23T15:18:41;29.40;55.40
152;DHT22;68;48.792;9.164;2022-07-23T15:21:08;29.60;55.90
152;DHT22;68;48.792;9.164;2022-07-23T15:23:35;29.70;56.30
152;DHT22;68;48.792;9.164;2022-07-23T15:26:07;29.80;56.70
152;DHT22;68;48.792;9.164;2022-07-23T15:28:34;29.80;57.20
152;DHT22;68;48.792;9.164;2022-07-23T15:31:02;29.70;56.20
152;DHT22;68;48.792;9.164;2022-07-23T15:33:29;29.80;57.00
152;DHT22;68;48.792;9.164;2022-07-23T15:35:56;29.50;58.10
152;DHT22;68;48.792;9.164;2022-07-23T15:38:24;29.30;56.10
152;DHT22;68;48.792;9.164;2022-07-23T15:40:51;28.90;58.60
152;DHT22;68;48.792;9.164;2022-07-23T15:43:19;28.60;59.10
152;DHT22;68;48.792;9.164;2022-07-23T15:45:47;28.70;59.80
152;DHT22;68;48.792;9.164;2022-07-23T15:48:14;28.80;58.30
152;DHT22;68;48.792;9.164;2022-07-23T15:50:41;28.80;57.10
152;DHT22;68;48.792;9.164;2022-07-23T15:53:08;28.80;57.30
152;DHT22;68;48.792;9.164;2022-07-23T15:55:35;28.90;57.00
152;DHT22;68;48.792;9.164;2022-07-23T15:58:04;28.70;58.00
152;DHT22;68;48.792;9.164;2022-07-23T16:00:32;28.50;57.30
152;DHT22;68;48.792;9.164;2022-07-23T16:02:59;28.50;58.30
152;DHT22;68;48.792;9.164;2022-07-23T16:05:26;28.70;57.80
152;DHT22;68;48.792;9.164;2022-07-23T16:07:52;28.90;58.30
152;DHT22;68;48.792;9.164;2022-07-23T16:10:19;28.80;59.10
152;DHT22;68;48.792;9.164;2022-07-23T16:12:46;28.70;58.60
152;DHT22;68;48.792;9.164;2022-07-23T16:15:13;28.70;58.10
152;DHT22;68;48.792;9.164;2022-07-23T16:17:42;28.50;59.20
152;DHT22;68;48.792;9.164;2022-07-23T16:20:10;28.50;58.90
152;DHT22;68;48.792;9.164;2022-07-23T16:22:38;28.60;59.40
152;DHT22;68;48.792;9.164;2022-07-23T16:25:05;28.40;57.60
152;DHT22;68;48.792;9.164;2022-07-23T16:27:33;28.40;58.20
152;DHT22;68;48.792;9.164;2022-07-23T16:30:00;28.50;58.90
152;DHT22;68;48.792;9.164;2022-07-23T16:32:27;28.60;58.00
152;DHT22;68;48.792;9.164;2022-07-23T16:34:55;28.60;59.70
152;DHT22;68;48.792;9.164;2022-07-23T16:37:22;28.50;58.80
152;DHT22;68;48.792;9.164;2022-07-23T16:39:49;28.50;58.70
152;DHT22;68;48.792;9.164;2022-07-23T16:42:16;28.40;59.70
152;DHT22;68;48.792;9.164;2022-07-23T16:44:43;28.50;59.60
152;DHT22;68;48.792;9.164;2022-07-23T16:47:10;28.70;59.50
152;DHT22;68;48.792;9.164;2022-07-23T16:49:37;28.90;59.50
152;DHT22;68;48.792;9.164;2022-07-23T16:52:05;28.90;59.00
152;DHT22;68;48.792;9.164;2022-07-23T16:54:32;28.80;60.70
152;DHT22;68;48.792;9.164;2022-07-23T16:56:59;28.60;61.70
152;DHT22;68;48.792;9.164;2022-07-23T16:59:25;28.60;60.00
152;DHT22;68;48.792;9.164;2022-07-23T17:01:52;28.70;60.40
152;DHT22;68;48.792;9.164;2022-07-23T17:04:19;28.70;60.40
152;DHT22;68;48.792;9.164;2022-07-23T17:06:46;28.60;60.30
152;DHT22;68;48.792;9.164;2022-07-23T17:09:14;28.50;60.80
152;DHT22;68;48.792;9.164;2022-07-23T17:11:41;28.30;61.90
152;DHT22;68;48.792;9.164;2022-07-23T17:14:08;28.30;61.90
152;DHT22;68;48.792;9.164;2022-07-23T17:16:35;28.40;61.50
152;DHT22;68;48.792;9.164;2022-07-23T17:19:02;28.30;61.60
152;DHT22;68;48.792;9.164;2022-07-23T17:21:29;28.30;62.30
152;DHT22;68;48.792;9.164;2022-07-23T17:23:56;28.50;61.50
152;DHT22;68;48.792;9.164;2022-07-23T17:26:25;28.20;63.40
152;DHT22;68;48.792;9.164;2022-07-23T17:28:52;28.10;62.90
152;DHT22;68;48.792;9.164;2022-07-23T17:31:18;27.90;63.80
152;DHT22;68;48.792;9.164;2022-07-23T17:33:45;27.80;63.40
152;DHT22;68;48.792;9.164;2022-07-23T17:36:13;27.80;63.60
152;DHT22;68;48.792;9.164;2022-07-23T17:38:39;27.60;65.20
152;DHT22;68;48.792;9.164;2022-07-23T17:41:06;27.60;64.30
152;DHT22;68;48.792;9.164;2022-07-23T17:43:34;27.60;64.70
152;DHT22;68;48.792;9.164;2022-07-23T17:46:01;27.80;65.10
152;DHT22;68;48.792;9.164;2022-07-23T17:48:28;27.70;64.50
152;DHT22;68;48.792;9.164;2022-07-23T17:50:55;27.60;65.00
152;DHT22;68;48.792;9.164;2022-07-23T17:53:23;27.80;65.10
152;DHT22;68;48.792;9.164;2022-07-23T17:55:51;27.90;65.00
152;DHT22;68;48.792;9.164;2022-07-23T17:58:18;27.90;64.70
152;DHT22;68;48.792;9.164;2022-07-23T18:00:47;27.90;64.60
152;DHT22;68;48.792;9.164;2022-07-23T18:03:14;28.00;64.30
152;DHT22;68;48.792;9.164;2022-07-23T18:05:40;27.90;64.80
152;DHT22;68;48.792;9.164;2022-07-23T18:08:07;27.90;64.30
152;DHT22;68;48.792;9.164;2022-07-23T18:10:35;27.50;64.40
152;DHT22;68;48.792;9.164;2022-07-23T18:13:04;27.40;65.40
152;DHT22;68;48.792;9.164;2022-07-23T18:15:32;27.30;65.10
152;DHT22;68;48.792;9.164;2022-07-23T18:18:00;27.30;66.00
152;DHT22;68;48.792;9.164;2022-07-23T18:20:27;27.40;66.00
152;DHT22;68;48.792;9.164;2022-07-23T18:22:54;27.70;64.50
152;DHT22;68;48.792;9.164;2022-07-23T18:25:21;27.90;64.30